sensor_id;sensor_type;location;lat;lon;timestamp;temperature;humidity
55365;DHT22;41245;45.384;20.390;2023-02-12T00:00:42;153.90;2252.80
55365;DHT22;41245;45.384;20.390;2023-02-12T00:03:08;153.80;2252.80
55365;DHT22;41245;45.384;20.390;2023-02-12T00:05:37;153.80;2252.80
55365;DHT22;41245;45.384;20.390;2023-02-12T00:08:02;153.90;2252.80
55365;DHT22;41245;45.384;20.390;2023-02-12T00:10:28;153.90;2252.80
55365;DHT22;41245;45.384;20.390;2023-02-12T00:12:54;153.90;2252.80
55365;DHT22;41245;45.384;20.390;2023-02-12T00:15:20;153.90;2252.80
55365;DHT22;41245;45.384;20.390;2023-02-12T00:17:45;153.90;2252.80
55365;DHT22;41245;45.384;20.390;2023-02-12T00:20:11;154.00;2252.80
55365;DHT22;41245;45.384;20.390;2023-02-12T00:22:37;154.00;2252.80
55365;DHT22;41245;45.384;20.390;2023-02-12T00:25:03;154.00;2252.80
55365;DHT22;41245;45.384;20.390;2023-02-12T00:27:32;154.00;2252.80
55365;DHT22;41245;45.384;20.390;2023-02-12T00:29:57;154.00;2252.80
55365;DHT22;41245;45.384;20.390;2023-02-12T00:32:23;153.90;2252.80
55365;DHT22;41245;45.384;20.390;2023-02-12T00:34:48;153.90;2252.80
55365;DHT22;41245;45.384;20.390;2023-02-12T00:37:14;153.80;2252.80
55365;DHT22;41245;45.384;20.390;2023-02-12T00:39:40;153.80;2252.80
55365;DHT22;41245;45.384;20.390;2023-02-12T00:42:06;153.80;2252.80
55365;DHT22;41245;45.384;20.390;2023-02-12T00:44:32;153.70;2252.80
55365;DHT22;41245;45.384;20.390;2023-02-12T00:46:57;153.70;2252.80
55365;DHT22;41245;45.384;20.390;2023-02-12T00:49:30;128.90;2252.80
55365;DHT22;41245;45.384;20.390;2023-02-12T00:51:59;128.90;2252.80
55365;DHT22;41245;45.384;20.390;2023-02-12T00:54:26;153.60;2252.80
55365;DHT22;41245;45.384;20.390;2023-02-12T00:56:51;128.90;2252.80
55365;DHT22;41245;45.384;20.390;2023-02-12T00:59:17;128.90;2252.80
55365;DHT22;41245;45.384;20.390;2023-02-12T01:01:42;128.90;2252.80
55365;DHT22;41245;45.384;20.390;2023-02-12T01:04:08;128.90;2252.80
55365;DHT22;41245;45.384;20.390;2023-02-12T01:06:34;128.90;2252.80
55365;DHT22;41245;45.384;20.390;2023-02-12T01:08:59;128.90;2252.80
55365;DHT22;41245;45.384;20.390;2023-02-12T01:11:26;128.90;2252.80
55365;DHT22;41245;45.384;20.390;2023-02-12T01:13:52;153.60;2252.80
55365;DHT22;41245;45.384;20.390;2023-02-12T01:16:21;153.90;2252.80
55365;DHT22;41245;45.384;20.390;2023-02-12T01:18:47;153.60;2252.80
55365;DHT22;41245;45.384;20.390;2023-02-12T01:21:19;128.90;2252.80
55365;DHT22;41245;45.384;20.390;2023-02-12T01:23:45;128.70;2252.80
55365;DHT22;41245;45.384;20.390;2023-02-12T01:26:11;153.60;2252.80
55365;DHT22;41245;45.384;20.390;2023-02-12T01:28:39;128.90;2252.80
55365;DHT22;41245;45.384;20.390;2023-02-12T01:31:13;153.60;2252.80
55365;DHT22;41245;45.384;20.390;2023-02-12T01:33:40;153.70;2252.80
55365;DHT22;41245;45.384;20.390;2023-02-12T01:36:06;153.70;2252.80
55365;DHT22;41245;45.384;20.390;2023-02-12T01:38:32;153.70;2252.80
55365;DHT22;41245;45.384;20.390;2023-02-12T01:41:06;153.60;2252.80
55365;DHT22;41245;45.384;20.390;2023-02-12T01:43:33;128.90;2252.80
55365;DHT22;41245;45.384;20.390;2023-02-12T01:46:00;128.90;2252.80
55365;DHT22;41245;45.384;20.390;2023-02-12T01:48:28;128.90;2252.80
55365;DHT22;41245;45.384;20.390;2023-02-12T01:50:55;128.80;2252.80
55365;DHT22;41245;45.384;20.390;2023-02-12T01:53:23;128.90;2252.80
55365;DHT22;41245;45.384;20.390;2023-02-12T01:55:55;128.80;2252.80
55365;DHT22;41245;45.384;20.390;2023-02-12T01:58:23;128.80;2252.80
55365;DHT22;41245;45.384;20.390;2023-02-12T02:00:51;128.80;2252.80
55365;DHT22;41245;45.384;20.390;2023-02-12T02:03:17;128.80;2252.80
55365;DHT22;41245;45.384;20.390;2023-02-12T02:05:54;128.70;2252.80
55365;DHT22;41245;45.384;20.390;2023-02-12T02:08:21;128.70;2252.80
55365;DHT22;41245;45.384;20.390;2023-02-12T02:10:48;128.70;2252.80
55365;DHT22;41245;45.384;20.390;2023-02-12T02:13:14;128.70;2252.80
55365;DHT22;41245;45.384;20.390;2023-02-12T02:16:06;128.70;2252.80
55365;DHT22;41245;45.384;20.390;2023-02-12T02:32:36;128.80;2252.80
55365;DHT22;41245;45.384;20.390;2023-02-12T02:40:48;128.80;2252.80
55365;DHT22;41245;45.384;20.390;2023-02-12T02:43:25;128.80;2252.80
55365;DHT22;41245;45.384;20.390;2023-02-12T02:46:01;128.80;2252.80
55365;DHT22;41245;45.384;20.390;2023-02-12T02:48:35;128.80;2252.80
55365;DHT22;41245;45.384;20.390;2023-02-12T02:51:11;128.80;2252.80
55365;DHT22;41245;45.384;20.390;2023-02-12T02:53:47;128.80;2252.80
55365;DHT22;41245;45.384;20.390;2023-02-12T02:56:16;128.90;2252.80
55365;DHT22;41245;45.384;20.390;2023-02-12T02:58:50;128.90;2252.80
55365;DHT22;41245;45.384;20.390;2023-02-12T03:01:33;128.90;2252.80
55365;DHT22;41245;45.384;20.390;2023-02-12T03:04:06;128.90;2252.80
55365;DHT22;41245;45.384;20.390;2023-02-12T03:09:08;128.90;2252.80
55365;DHT22;41245;45.384;20.390;2023-02-12T03:11:37;128.90;2252.80
55365;DHT22;41245;45.384;20.390;2023-02-12T03:16:34;128.80;2252.80
55365;DHT22;41245;45.384;20.390;2023-02-12T03:19:09;128.80;2252.80
55365;DHT22;41245;45.384;20.390;2023-02-12T03:24:15;128.80;2252.80
55365;DHT22;41245;45.384;20.390;2023-02-12T03:26:46;128.70;2252.80
55365;DHT22;41245;45.384;20.390;2023-02-12T03:29:13;153.60;2252.80
55365;DHT22;41245;45.384;20.390;2023-02-12T03:31:47;128.60;2252.80
55365;DHT22;41245;45.384;20.390;2023-02-12T03:36:53;128.50;2252.80
55365;DHT22;41245;45.384;20.390;2023-02-12T03:39:37;128.50;2252.80
55365;DHT22;41245;45.384;20.390;2023-02-12T03:42:13;128.40;2252.80
55365;DHT22;41245;45.384;20.390;2023-02-12T03:44:46;128.50;2252.80
55365;DHT22;41245;45.384;20.390;2023-02-12T03:52:38;128.60;2252.80
55365;DHT22;41245;45.384;20.390;2023-02-12T03:55:04;128.60;2252.80
55365;DHT22;41245;45.384;20.390;2023-02-12T03:57:36;128.50;2252.80
55365;DHT22;41245;45.384;20.390;2023-02-12T04:00:07;128.50;2252.80
55365;DHT22;41245;45.384;20.390;2023-02-12T04:02:33;128.60;2252.80
55365;DHT22;41245;45.384;20.390;2023-02-12T04:05:07;128.60;2252.80
55365;DHT22;41245;45.384;20.390;2023-02-12T04:07:35;128.50;2252.80
55365;DHT22;41245;45.384;20.390;2023-02-12T04:10:02;128.60;2252.80
55365;DHT22;41245;45.384;20.390;2023-02-12T04:12:52;128.50;2252.80
55365;DHT22;41245;45.384;20.390;2023-02-12T04:18:15;128.40;2252.80
55365;DHT22;41245;45.384;20.390;2023-02-12T04:26:32;128.50;2252.80
55365;DHT22;41245;45.384;20.390;2023-02-12T04:32:09;128.70;2252.80
55365;DHT22;41245;45.384;20.390;2023-02-12T04:37:58;128.70;2252.80
55365;DHT22;41245;45.384;20.390;2023-02-12T04:40:26;128.70;2252.80
55365;DHT22;41245;45.384;20.390;2023-02-12T04:42:52;128.50;2252.80
55365;DHT22;41245;45.384;20.390;2023-02-12T04:45:23;128.60;2252.80
55365;DHT22;41245;45.384;20.390;2023-02-12T04:47:49;128.60;2252.80
55365;DHT22;41245;45.384;20.390;2023-02-12T04:50:15;128.70;2252.80
55365;DHT22;41245;45.384;20.390;2023-02-12T04:52:41;128.70;2252.80
55365;DHT22;41245;45.384;20.390;2023-02-12T04:55:06;128.70;2252.80
55365;DHT22;41245;45.384;20.390;2023-02-12T04:57:32;128.70;2252.80
55365;DHT22;41245;45.384;20.390;2023-02-12T04:59:58;128.80;2252.80
55365;DHT22;41245;45.384;20.390;2023-02-12T05:02:23;128.80;2252.80
55365;DHT22;41245;45.384;20.390;2023-02-12T05:04:49;128.80;2252.80
55365;DHT22;41245;45.384;20.390;2023-02-12T05:07:15;128.80;2252.80
55365;DHT22;41245;45.384;20.390;2023-02-12T05:09:41;128.80;2252.80
55365;DHT22;41245;45.384;20.390;2023-02-12T05:12:07;128.80;2252.80
55365;DHT22;41245;45.384;20.390;2023-02-12T05:14:33;128.80;2252.80
55365;DHT22;41245;45.384;20.390;2023-02-12T05:16:58;128.80;2252.80
55365;DHT22;41245;45.384;20.390;2023-02-12T05:19:24;128.80;2252.80
55365;DHT22;41245;45.384;20.390;2023-02-12T05:21:50;128.80;2252.80
55365;DHT22;41245;45.384;20.390;2023-02-12T05:24:16;128.80;2252.80
55365;DHT22;41245;45.384;20.390;2023-02-12T05:26:42;128.70;2252.80
55365;DHT22;41245;45.384;20.390;2023-02-12T05:29:07;128.70;2252.80
55365;DHT22;41245;45.384;20.390;2023-02-12T05:31:33;128.70;2252.80
55365;DHT22;41245;45.384;20.390;2023-02-12T05:33:59;128.60;2252.80
55365;DHT22;41245;45.384;20.390;2023-02-12T05:36:25;128.50;2252.80
55365;DHT22;41245;45.384;20.390;2023-02-12T05:38:51;128.50;2252.80
55365;DHT22;41245;45.384;20.390;2023-02-12T05:41:20;128.50;2252.80
55365;DHT22;41245;45.384;20.390;2023-02-12T05:43:47;128.50;2252.80
55365;DHT22;41245;45.384;20.390;2023-02-12T05:46:13;128.40;2252.80
55365;DHT22;41245;45.384;20.390;2023-02-12T05:48:39;128.40;2252.80
55365;DHT22;41245;45.384;20.390;2023-02-12T05:51:10;128.30;2252.80
55365;DHT22;41245;45.384;20.390;2023-02-12T05:53:37;128.20;2252.80
55365;DHT22;41245;45.384;20.390;2023-02-12T05:56:20;128.20;2252.80
55365;DHT22;41245;45.384;20.390;2023-02-12T05:58:51;128.10;2252.80
55365;DHT22;41245;45.384;20.390;2023-02-12T06:01:23;128.00;2252.80
55365;DHT22;41245;45.384;20.390;2023-02-12T06:03:51;128.10;2252.80
55365;DHT22;41245;45.384;20.390;2023-02-12T06:06:16;128.00;2252.80
55365;DHT22;41245;45.384;20.390;2023-02-12T06:08:42;128.00;2252.80
55365;DHT22;41245;45.384;20.390;2023-02-12T06:11:12;128.00;2252.80
55365;DHT22;41245;45.384;20.390;2023-02-12T06:13:37;128.10;2252.80
55365;DHT22;41245;45.384;20.390;2023-02-12T06:16:04;128.10;2252.80
55365;DHT22;41245;45.384;20.390;2023-02-12T06:18:29;128.10;2252.80
55365;DHT22;41245;45.384;20.390;2023-02-12T06:20:55;128.10;2252.80
55365;DHT22;41245;45.384;20.390;2023-02-12T06:23:22;128.10;2252.80
55365;DHT22;41245;45.384;20.390;2023-02-12T06:25:49;128.10;2252.80
55365;DHT22;41245;45.384;20.390;2023-02-12T06:28:16;128.10;2252.80
55365;DHT22;41245;45.384;20.390;2023-02-12T06:30:42;128.10;2252.80
55365;DHT22;41245;45.384;20.390;2023-02-12T06:33:08;128.10;2252.80
55365;DHT22;41245;45.384;20.390;2023-02-12T06:35:34;128.10;2252.80
55365;DHT22;41245;45.384;20.390;2023-02-12T06:38:00;128.20;2252.80
55365;DHT22;41245;45.384;20.390;2023-02-12T06:40:26;128.30;2252.80
55365;DHT22;41245;45.384;20.390;2023-02-12T06:42:51;128.40;2252.80
55365;DHT22;41245;45.384;20.390;2023-02-12T06:45:17;128.50;2252.80
55365;DHT22;41245;45.384;20.390;2023-02-12T06:47:42;128.50;2252.80
55365;DHT22;41245;45.384;20.390;2023-02-12T06:50:08;128.60;2252.80
55365;DHT22;41245;45.384;20.390;2023-02-12T06:52:34;128.70;2252.80
55365;DHT22;41245;45.384;20.390;2023-02-12T06:55:00;128.70;2252.80
55365;DHT22;41245;45.384;20.390;2023-02-12T06:57:25;128.70;2252.80
55365;DHT22;41245;45.384;20.390;2023-02-12T06:59:51;128.70;2252.80
55365;DHT22;41245;45.384;20.390;2023-02-12T07:02:17;128.80;2252.80
55365;DHT22;41245;45.384;20.390;2023-02-12T07:04:42;128.90;2252.80
55365;DHT22;41245;45.384;20.390;2023-02-12T07:07:08;128.80;2252.80
55365;DHT22;41245;45.384;20.390;2023-02-12T07:09:33;128.80;2252.80
55365;DHT22;41245;45.384;20.390;2023-02-12T07:11:59;128.90;2252.80
55365;DHT22;41245;45.384;20.390;2023-02-12T07:14:25;128.90;2252.80
55365;DHT22;41245;45.384;20.390;2023-02-12T07:16:53;153.60;2252.80
55365;DHT22;41245;45.384;20.390;2023-02-12T07:19:19;153.60;2252.80
55365;DHT22;41245;45.384;20.390;2023-02-12T07:21:45;128.90;2252.80
55365;DHT22;41245;45.384;20.390;2023-02-12T07:24:11;153.70;2252.80
55365;DHT22;41245;45.384;20.390;2023-02-12T07:26:38;153.70;2252.80
55365;DHT22;41245;45.384;20.390;2023-02-12T07:29:04;153.80;2252.80
55365;DHT22;41245;45.384;20.390;2023-02-12T07:31:30;153.70;2252.80
55365;DHT22;41245;45.384;20.390;2023-02-12T07:33:57;153.60;2252.80
55365;DHT22;41245;45.384;20.390;2023-02-12T07:36:24;153.80;2252.80
55365;DHT22;41245;45.384;20.390;2023-02-12T07:38:50;153.70;2252.80
55365;DHT22;41245;45.384;20.390;2023-02-12T07:41:27;153.80;2252.80
55365;DHT22;41245;45.384;20.390;2023-02-12T07:43:59;153.90;2252.80
55365;DHT22;41245;45.384;20.390;2023-02-12T07:46:27;154.10;2252.80
55365;DHT22;41245;45.384;20.390;2023-02-12T07:48:57;153.90;2252.80
55365;DHT22;41245;45.384;20.390;2023-02-12T07:51:24;154.10;2252.80
55365;DHT22;41245;45.384;20.390;2023-02-12T07:53:50;154.10;2252.80
55365;DHT22;41245;45.384;20.390;2023-02-12T07:56:18;153.80;2252.80
55365;DHT22;41245;45.384;20.390;2023-02-12T07:58:45;154.00;2252.80
55365;DHT22;41245;45.384;20.390;2023-02-12T08:01:26;154.00;2252.80
55365;DHT22;41245;45.384;20.390;2023-02-12T08:03:53;154.10;2252.80
55365;DHT22;41245;45.384;20.390;2023-02-12T08:06:22;153.90;2252.80
55365;DHT22;41245;45.384;20.390;2023-02-12T08:08:51;154.00;2252.80
55365;DHT22;41245;45.384;20.390;2023-02-12T08:11:17;154.10;2252.80
55365;DHT22;41245;45.384;20.390;2023-02-12T08:13:43;154.00;2252.80
55365;DHT22;41245;45.384;20.390;2023-02-12T08:16:15;154.00;2252.80
55365;DHT22;41245;45.384;20.390;2023-02-12T08:18:41;153.80;2252.80
55365;DHT22;41245;45.384;20.390;2023-02-12T08:21:13;154.00;2252.80
55365;DHT22;41245;45.384;20.390;2023-02-12T08:23:39;154.10;2252.80
55365;DHT22;41245;45.384;20.390;2023-02-12T08:26:21;154.30;2252.80
55365;DHT22;41245;45.384;20.390;2023-02-12T08:28:53;154.50;2252.80
55365;DHT22;41245;45.384;20.390;2023-02-12T08:31:21;179.20;2252.80
55365;DHT22;41245;45.384;20.390;2023-02-12T08:33:48;154.50;2252.80
55365;DHT22;41245;45.384;20.390;2023-02-12T08:36:18;154.50;2252.80
55365;DHT22;41245;45.384;20.390;2023-02-12T08:38:45;154.20;2252.80
55365;DHT22;41245;45.384;20.390;2023-02-12T08:41:22;154.30;2252.80
55365;DHT22;41245;45.384;20.390;2023-02-12T08:43:50;154.30;2252.80
55365;DHT22;41245;45.384;20.390;2023-02-12T08:46:22;154.40;2252.80
55365;DHT22;41245;45.384;20.390;2023-02-12T08:48:50;154.50;2252.80
55365;DHT22;41245;45.384;20.390;2023-02-12T08:51:22;179.40;2252.80
55365;DHT22;41245;45.384;20.390;2023-02-12T08:53:51;179.40;2252.80
55365;DHT22;41245;45.384;20.390;2023-02-12T08:56:18;179.20;2252.80
55365;DHT22;41245;45.384;20.390;2023-02-12T08:58:44;179.30;2252.80
55365;DHT22;41245;45.384;20.390;2023-02-12T09:01:12;179.30;2252.80
55365;DHT22;41245;45.384;20.390;2023-02-12T09:03:38;179.20;2252.80
55365;DHT22;41245;45.384;20.390;2023-02-12T09:06:05;154.40;2252.80
55365;DHT22;41245;45.384;20.390;2023-02-12T09:08:31;179.20;2252.80
55365;DHT22;41245;45.384;20.390;2023-02-12T09:10:57;154.40;2252.80
55365;DHT22;41245;45.384;20.390;2023-02-12T09:13:23;154.50;2252.80
55365;DHT22;41245;45.384;20.390;2023-02-12T09:15:49;154.50;2252.80
55365;DHT22;41245;45.384;20.390;2023-02-12T09:18:15;179.40;2252.80
55365;DHT22;41245;45.384;20.390;2023-02-12T09:20:43;179.30;2252.80
55365;DHT22;41245;45.384;20.390;2023-02-12T09:23:11;179.50;2252.80
55365;DHT22;41245;45.384;20.390;2023-02-12T09:25:41;179.50;2252.80
55365;DHT22;41245;45.384;20.390;2023-02-12T09:28:07;179.50;2252.80
55365;DHT22;41245;45.384;20.390;2023-02-12T09:30:34;179.40;2252.80
55365;DHT22;41245;45.384;20.390;2023-02-12T09:33:00;179.50;2252.80
55365;DHT22;41245;45.384;20.390;2023-02-12T09:35:26;179.50;2252.80
55365;DHT22;41245;45.384;20.390;2023-02-12T09:37:52;179.60;2252.80
55365;DHT22;41245;45.384;20.390;2023-02-12T09:43:06;180.00;2252.80
55365;DHT22;41245;45.384;20.390;2023-02-12T09:45:46;180.10;2252.80
55365;DHT22;41245;45.384;20.390;2023-02-12T09:48:26;204.80;2252.80
55365;DHT22;41245;45.384;20.390;2023-02-12T09:50:59;204.90;2252.80
55365;DHT22;41245;45.384;20.390;2023-02-12T09:53:29;205.10;2252.80
55365;DHT22;41245;45.384;20.390;2023-02-12T09:55:56;205.30;2252.80
55365;DHT22;41245;45.384;20.390;2023-02-12T09:58:50;205.30;2252.80
55365;DHT22;41245;45.384;20.390;2023-02-12T10:01:18;205.50;2252.80
55365;DHT22;41245;45.384;20.390;2023-02-12T10:03:47;205.60;2252.80
55365;DHT22;41245;45.384;20.390;2023-02-12T10:06:23;205.70;2252.80
55365;DHT22;41245;45.384;20.390;2023-02-12T10:11:50;205.60;2252.80
55365;DHT22;41245;45.384;20.390;2023-02-12T10:17:36;231.10;2252.80
55365;DHT22;41245;45.384;20.390;2023-02-12T10:23:06;231.10;2252.80
55365;DHT22;41245;45.384;20.390;2023-02-12T10:28:25;231.00;2252.80
55365;DHT22;41245;45.384;20.390;2023-02-12T10:31:04;230.70;2252.80
55365;DHT22;41245;45.384;20.390;2023-02-12T10:33:45;230.80;2252.80
55365;DHT22;41245;45.384;20.390;2023-02-12T10:36:42;231.00;2252.80
55365;DHT22;41245;45.384;20.390;2023-02-12T10:39:21;231.20;2252.80
55365;DHT22;41245;45.384;20.390;2023-02-12T10:41:55;231.10;2252.80
55365;DHT22;41245;45.384;20.390;2023-02-12T10:44:22;231.30;2252.80
55365;DHT22;41245;45.384;20.390;2023-02-12T10:46:48;256.00;2252.80
55365;DHT22;41245;45.384;20.390;2023-02-12T10:49:16;256.00;2252.80
55365;DHT22;41245;45.384;20.390;2023-02-12T10:51:44;256.10;2252.80
55365;DHT22;41245;45.384;20.390;2023-02-12T10:57:25;256.10;2252.80
55365;DHT22;41245;45.384;20.390;2023-02-12T10:59:54;256.30;2252.80
55365;DHT22;41245;45.384;20.390;2023-02-12T11:02:28;256.20;2252.80
55365;DHT22;41245;45.384;20.390;2023-02-12T11:04:56;256.20;2252.80
55365;DHT22;41245;45.384;20.390;2023-02-12T11:07:23;256.40;2252.80
55365;DHT22;41245;45.384;20.390;2023-02-12T11:09:51;256.20;2252.80
55365;DHT22;41245;45.384;20.390;2023-02-12T11:12:33;231.30;2252.80
55365;DHT22;41245;45.384;20.390;2023-02-12T11:17:40;230.60;2252.80
55365;DHT22;41245;45.384;20.390;2023-02-12T11:22:57;230.40;2252.80
55365;DHT22;41245;45.384;20.390;2023-02-12T11:25:34;205.70;2252.80
55365;DHT22;41245;45.384;20.390;2023-02-12T11:28:17;230.50;2252.80
55365;DHT22;41245;45.384;20.390;2023-02-12T11:36:34;230.60;2252.80
55365;DHT22;41245;45.384;20.390;2023-02-12T11:39:00;230.70;2252.80
55365;DHT22;41245;45.384;20.390;2023-02-12T11:41:33;230.80;2252.80
55365;DHT22;41245;45.384;20.390;2023-02-12T11:44:08;230.90;2252.80
55365;DHT22;41245;45.384;20.390;2023-02-12T11:46:34;230.80;2252.80
55365;DHT22;41245;45.384;20.390;2023-02-12T11:49:00;230.90;2252.80
55365;DHT22;41245;45.384;20.390;2023-02-12T11:51:28;231.00;2252.80
55365;DHT22;41245;45.384;20.390;2023-02-12T11:53:57;231.10;2252.80
55365;DHT22;41245;45.384;20.390;2023-02-12T11:56:24;231.10;2252.80
55365;DHT22;41245;45.384;20.390;2023-02-12T12:01:50;231.20;2252.80
55365;DHT22;41245;45.384;20.390;2023-02-12T12:04:19;231.10;2252.80
55365;DHT22;41245;45.384;20.390;2023-02-12T12:07:27;231.00;2252.80
55365;DHT22;41245;45.384;20.390;2023-02-12T12:09:59;231.20;2252.80
55365;DHT22;41245;45.384;20.390;2023-02-12T12:12:42;231.30;2252.80
55365;DHT22;41245;45.384;20.390;2023-02-12T12:15:18;256.00;2252.80
55365;DHT22;41245;45.384;20.390;2023-02-12T12:23:51;256.10;2252.80
55365;DHT22;41245;45.384;20.390;2023-02-12T12:26:39;256.10;2252.80
55365;DHT22;41245;45.384;20.390;2023-02-12T12:32:00;256.00;2252.80
55365;DHT22;41245;45.384;20.390;2023-02-12T12:34:28;256.10;2252.80
55365;DHT22;41245;45.384;20.390;2023-02-12T12:39:35;256.20;2252.80
55365;DHT22;41245;45.384;20.390;2023-02-12T12:45:09;256.10;2252.80
55365;DHT22;41245;45.384;20.390;2023-02-12T12:57:00;256.20;2252.80
55365;DHT22;41245;45.384;20.390;2023-02-12T13:08:21;256.30;2252.80
55365;DHT22;41245;45.384;20.390;2023-02-12T13:11:00;256.30;2252.80
55365;DHT22;41245;45.384;20.390;2023-02-12T13:13:44;256.40;2252.80
55365;DHT22;41245;45.384;20.390;2023-02-12T13:16:19;256.50;2252.80
55365;DHT22;41245;45.384;20.390;2023-02-12T13:19:10;256.30;2252.80
55365;DHT22;41245;45.384;20.390;2023-02-12T13:24:46;256.20;2252.80
55365;DHT22;41245;45.384;20.390;2023-02-12T13:27:19;256.30;2252.80
55365;DHT22;41245;45.384;20.390;2023-02-12T13:29:52;256.30;2252.80
55365;DHT22;41245;45.384;20.390;2023-02-12T13:32:29;256.40;2252.80
55365;DHT22;41245;45.384;20.390;2023-02-12T13:34:55;256.30;2252.80
55365;DHT22;41245;45.384;20.390;2023-02-12T13:37:44;256.40;2252.80
55365;DHT22;41245;45.384;20.390;2023-02-12T13:40:18;256.30;2252.80
55365;DHT22;41245;45.384;20.390;2023-02-12T13:48:31;256.30;2252.80
55365;DHT22;41245;45.384;20.390;2023-02-12T13:53:57;256.20;2252.80
55365;DHT22;41245;45.384;20.390;2023-02-12T13:56:49;256.30;2252.80
55365;DHT22;41245;45.384;20.390;2023-02-12T14:01:57;256.20;2252.80
55365;DHT22;41245;45.384;20.390;2023-02-12T14:07:01;256.30;2252.80
55365;DHT22;41245;45.384;20.390;2023-02-12T14:09:45;256.30;2252.80
55365;DHT22;41245;45.384;20.390;2023-02-12T14:12:57;256.40;2252.80
55365;DHT22;41245;45.384;20.390;2023-02-12T14:15:09;256.20;2252.80
55365;DHT22;41245;45.384;20.390;2023-02-12T14:27:59;256.20;2252.80
55365;DHT22;41245;45.384;20.390;2023-02-12T14:30:33;256.30;2252.80
55365;DHT22;41245;45.384;20.390;2023-02-12T14:33:15;256.30;2252.80
55365;DHT22;41245;45.384;20.390;2023-02-12T14:35:42;256.30;2252.80
55365;DHT22;41245;45.384;20.390;2023-02-12T14:49:04;256.30;2252.80
55365;DHT22;41245;45.384;20.390;2023-02-12T14:51:37;256.10;2252.80
55365;DHT22;41245;45.384;20.390;2023-02-12T14:54:20;256.10;2252.80
55365;DHT22;41245;45.384;20.390;2023-02-12T14:56:50;256.10;2252.80
55365;DHT22;41245;45.384;20.390;2023-02-12T14:59:19;256.20;2252.80
55365;DHT22;41245;45.384;20.390;2023-02-12T15:01:46;256.10;2252.80
55365;DHT22;41245;45.384;20.390;2023-02-12T15:04:24;256.70;2252.80
55365;DHT22;41245;45.384;20.390;2023-02-12T15:06:55;256.00;2252.80
55365;DHT22;41245;45.384;20.390;2023-02-12T15:09:45;231.30;2252.80
55365;DHT22;41245;45.384;20.390;2023-02-12T15:12:19;231.20;2252.80
55365;DHT22;41245;45.384;20.390;2023-02-12T15:15:22;231.10;2252.80
55365;DHT22;41245;45.384;20.390;2023-02-12T15:17:57;231.10;2252.80
55365;DHT22;41245;45.384;20.390;2023-02-12T15:20:32;231.00;2252.80
55365;DHT22;41245;45.384;20.390;2023-02-12T15:22:59;230.90;2252.80
55365;DHT22;41245;45.384;20.390;2023-02-12T15:25:27;230.90;2252.80
55365;DHT22;41245;45.384;20.390;2023-02-12T15:28:17;230.80;2252.80
55365;DHT22;41245;45.384;20.390;2023-02-12T15:30:44;230.90;2252.80
55365;DHT22;41245;45.384;20.390;2023-02-12T15:33:33;230.90;2252.80
55365;DHT22;41245;45.384;20.390;2023-02-12T15:36:01;230.80;2252.80
55365;DHT22;41245;45.384;20.390;2023-02-12T15:38:33;230.80;2252.80
55365;DHT22;41245;45.384;20.390;2023-02-12T15:41:00;230.80;2252.80
55365;DHT22;41245;45.384;20.390;2023-02-12T15:43:29;230.70;2252.80
55365;DHT22;41245;45.384;20.390;2023-02-12T15:46:04;230.50;2252.80
55365;DHT22;41245;45.384;20.390;2023-02-12T15:48:35;230.40;2252.80
55365;DHT22;41245;45.384;20.390;2023-02-12T15:53:39;230.40;2252.80
55365;DHT22;41245;45.384;20.390;2023-02-12T15:56:12;230.40;2252.80
55365;DHT22;41245;45.384;20.390;2023-02-12T15:58:51;205.70;2252.80
55365;DHT22;41245;45.384;20.390;2023-02-12T16:01:31;205.70;2252.80
55365;DHT22;41245;45.384;20.390;2023-02-12T16:04:00;205.60;2252.80
55365;DHT22;41245;45.384;20.390;2023-02-12T16:06:28;205.40;2252.80
55365;DHT22;41245;45.384;20.390;2023-02-12T16:09:08;205.30;2252.80
55365;DHT22;41245;45.384;20.390;2023-02-12T16:11:42;205.20;2252.80
55365;DHT22;41245;45.384;20.390;2023-02-12T16:16:46;205.10;2252.80
55365;DHT22;41245;45.384;20.390;2023-02-12T16:19:19;205.00;2252.80
55365;DHT22;41245;45.384;20.390;2023-02-12T16:21:51;204.80;2252.80
55365;DHT22;41245;45.384;20.390;2023-02-12T16:24:26;180.10;2252.80
55365;DHT22;41245;45.384;20.390;2023-02-12T16:26:52;180.10;2252.80
55365;DHT22;41245;45.384;20.390;2023-02-12T16:29:18;180.00;2252.80
55365;DHT22;41245;45.384;20.390;2023-02-12T16:31:59;179.90;2252.80
55365;DHT22;41245;45.384;20.390;2023-02-12T16:34:30;179.90;2252.80
55365;DHT22;41245;45.384;20.390;2023-02-12T16:36:56;179.90;2252.80
55365;DHT22;41245;45.384;20.390;2023-02-12T16:42:24;179.90;2252.80
55365;DHT22;41245;45.384;20.390;2023-02-12T16:44:54;179.80;2252.80
55365;DHT22;41245;45.384;20.390;2023-02-12T16:47:21;179.70;2252.80
55365;DHT22;41245;45.384;20.390;2023-02-12T16:50:14;179.60;2252.80
55365;DHT22;41245;45.384;20.390;2023-02-12T16:52:40;179.40;2252.80
55365;DHT22;41245;45.384;20.390;2023-02-12T16:55:12;179.30;2252.80
55365;DHT22;41245;45.384;20.390;2023-02-12T16:57:37;179.20;2252.80
55365;DHT22;41245;45.384;20.390;2023-02-12T17:00:15;154.50;2252.80
55365;DHT22;41245;45.384;20.390;2023-02-12T17:02:41;154.50;2252.80
55365;DHT22;41245;45.384;20.390;2023-02-12T17:05:07;154.40;2252.80
55365;DHT22;41245;45.384;20.390;2023-02-12T17:07:34;154.40;2252.80
55365;DHT22;41245;45.384;20.390;2023-02-12T17:10:00;154.40;2252.80
55365;DHT22;41245;45.384;20.390;2023-02-12T17:12:27;154.40;2252.80
55365;DHT22;41245;45.384;20.390;2023-02-12T17:14:53;154.30;2252.80
55365;DHT22;41245;45.384;20.390;2023-02-12T17:17:20;154.30;2252.80
55365;DHT22;41245;45.384;20.390;2023-02-12T17:19:46;154.20;2252.80
55365;DHT22;41245;45.384;20.390;2023-02-12T17:22:20;154.20;2252.80
55365;DHT22;41245;45.384;20.390;2023-02-12T17:24:47;154.20;2252.80
55365;DHT22;41245;45.384;20.390;2023-02-12T17:27:16;154.10;2252.80
55365;DHT22;41245;45.384;20.390;2023-02-12T17:29:42;154.00;2252.80
55365;DHT22;41245;45.384;20.390;2023-02-12T17:32:08;154.00;2252.80
55365;DHT22;41245;45.384;20.390;2023-02-12T17:34:34;153.90;2252.80